createdAt,value
2018-06-17T00:02:16.541Z,100662.00
2018-06-17T00:04:45.750Z,100663.00
2018-06-17T00:07:14.976Z,100663.00
2018-06-17T00:09:44.210Z,100661.00
2018-06-17T00:12:13.874Z,100653.00
2018-06-17T00:14:43.374Z,100647.00
2018-06-17T00:17:13.052Z,100654.00
2018-06-17T00:19:42.808Z,100660.00
2018-06-17T00:22:12.701Z,100667.00
2018-06-17T00:24:41.956Z,100673.00
2018-06-17T00:27:11.555Z,100685.00
2018-06-17T00:29:40.932Z,100681.00
2018-06-17T00:32:10.419Z,100676.00
2018-06-17T00:34:39.551Z,100693.00
2018-06-17T00:37:09.245Z,100687.00
2018-06-17T00:39:38.488Z,100678.00
2018-06-17T00:42:07.593Z,100687.00
2018-06-17T00:44:36.856Z,100692.00
2018-06-17T00:47:06.910Z,100679.00
2018-06-17T00:49:36.124Z,100686.00
2018-06-17T00:52:05.323Z,100685.00
2018-06-17T00:54:34.872Z,100678.00
2018-06-17T00:57:15.251Z,100680.00
2018-06-17T00:59:44.876Z,100687.00
2018-06-17T01:02:14.637Z,100684.00
2018-06-17T01:04:43.840Z,100679.00
2018-06-17T01:07:13.052Z,100679.00
2018-06-17T01:09:42.768Z,100681.00
2018-06-17T01:12:12.552Z,100687.00
2018-06-17T01:14:41.812Z,100688.00
2018-06-17T01:17:11.108Z,100684.00
2018-06-17T01:19:40.526Z,100677.00
2018-06-17T01:22:10.034Z,100682.00
2018-06-17T01:24:39.370Z,100692.00
2018-06-17T01:27:08.469Z,100691.00
2018-06-17T01:29:37.787Z,100703.00
2018-06-17T01:32:07.102Z,100700.00
2018-06-17T01:34:36.531Z,100697.00
2018-06-17T01:37:05.650Z,100690.00
2018-06-17T01:39:34.984Z,100695.00
2018-06-17T01:42:04.178Z,100688.00
2018-06-17T01:44:33.346Z,100701.00
2018-06-17T01:47:02.757Z,100701.00
2018-06-17T01:49:32.150Z,100701.00
2018-06-17T01:52:01.415Z,100699.00
2018-06-17T01:54:30.769Z,100696.00
2018-06-17T01:57:00.380Z,100699.00
2018-06-17T01:59:29.896Z,100707.00
2018-06-17T02:01:59.287Z,100702.00
2018-06-17T02:04:33.977Z,100707.00
2018-06-17T02:09:15.174Z,100698.00
2018-06-17T02:11:49.562Z,100713.00
2018-06-17T02:14:24.202Z,100707.00
2018-06-17T02:16:53.882Z,100699.00
2018-06-17T02:19:23.652Z,100706.00
2018-06-17T02:21:52.914Z,100693.00
2018-06-17T02:24:22.431Z,100705.00
2018-06-17T02:26:51.819Z,100704.00
2018-06-17T02:29:20.822Z,100708.00
2018-06-17T02:31:50.284Z,100705.00
2018-06-17T02:34:19.461Z,100708.00
2018-06-17T02:36:48.935Z,100712.00
2018-06-17T02:39:18.104Z,100706.00
2018-06-17T02:41:47.927Z,100713.00
2018-06-17T02:44:17.293Z,100706.00
2018-06-17T02:46:51.564Z,100688.00
2018-06-17T02:49:25.899Z,100691.00
2018-06-17T02:52:00.560Z,100699.00
2018-06-17T02:54:45.637Z,100696.00
2018-06-17T02:57:16.470Z,100696.00
2018-06-17T02:59:46.972Z,100709.00
2018-06-17T03:02:16.863Z,100711.00
2018-06-17T03:04:47.411Z,100708.00
2018-06-17T03:07:17.741Z,100715.00
2018-06-17T03:09:48.045Z,100707.00
2018-06-17T03:12:18.273Z,100715.00
2018-06-17T03:14:48.333Z,100715.00
2018-06-17T03:17:19.052Z,100729.00
2018-06-17T03:19:49.798Z,100725.00
2018-06-17T03:22:20.187Z,100715.00
2018-06-17T03:24:55.512Z,100715.00
2018-06-17T03:27:30.999Z,100731.00
2018-06-17T03:30:06.576Z,100712.00
2018-06-17T03:32:42.512Z,100711.00
2018-06-17T03:35:18.106Z,100703.00
2018-06-17T03:37:48.343Z,100708.00
2018-06-17T03:40:19.543Z,100709.00
2018-06-17T03:42:50.106Z,100719.00
2018-06-17T03:45:20.509Z,100706.00
2018-06-17T03:47:50.839Z,100700.00
2018-06-17T03:50:20.973Z,100707.00
2018-06-17T03:52:51.123Z,100705.00
2018-06-17T03:55:21.969Z,100708.00
2018-06-17T03:57:52.413Z,100707.00
2018-06-17T04:00:23.117Z,100720.00
2018-06-17T04:02:53.641Z,100710.00
2018-06-17T04:05:29.765Z,100725.00
2018-06-17T04:08:01.177Z,100723.00
2018-06-17T04:10:31.755Z,100731.00
2018-06-17T04:13:01.787Z,100744.00
2018-06-17T04:15:31.973Z,100747.00
2018-06-17T04:18:02.367Z,100747.00
2018-06-17T04:20:32.505Z,100749.00
2018-06-17T04:23:04.475Z,100754.00
2018-06-17T04:25:35.696Z,100751.00
2018-06-17T04:28:06.033Z,100749.00
2018-06-17T04:30:37.399Z,100747.00
2018-06-17T04:33:08.248Z,100746.00
2018-06-17T04:35:38.687Z,100760.00
2018-06-17T04:38:08.965Z,100755.00
2018-06-17T04:40:38.924Z,100754.00
2018-06-17T04:43:09.145Z,100759.00
2018-06-17T04:45:40.074Z,100753.00
2018-06-17T04:48:10.543Z,100755.00
2018-06-17T04:50:40.874Z,100748.00
2018-06-17T04:53:11.485Z,100753.00
2018-06-17T04:55:42.561Z,100752.00
2018-06-17T04:58:13.945Z,100761.00
2018-06-17T05:00:44.489Z,100766.00
2018-06-17T05:03:15.140Z,100775.00
2018-06-17T05:05:45.821Z,100775.00
2018-06-17T05:08:16.071Z,100775.00
2018-06-17T05:10:46.944Z,100769.00
2018-06-17T05:13:17.216Z,100780.00
2018-06-17T05:15:47.390Z,100781.00
2018-06-17T05:18:18.054Z,100788.00
2018-06-17T05:20:48.413Z,100778.00
2018-06-17T05:23:18.857Z,100777.00
2018-06-17T05:25:49.056Z,100774.00
2018-06-17T05:28:19.015Z,100786.00
2018-06-17T05:30:49.965Z,100775.00
2018-06-17T05:33:20.644Z,100784.00
2018-06-17T05:35:50.902Z,100787.00
2018-06-17T05:38:21.829Z,100782.00
2018-06-17T05:40:52.134Z,100790.00
2018-06-17T05:43:22.490Z,100786.00
2018-06-17T05:45:52.330Z,100781.00
2018-06-17T05:48:23.214Z,100786.00
2018-06-17T05:50:53.912Z,100785.00
2018-06-17T05:53:24.350Z,100781.00
2018-06-17T05:55:54.701Z,100785.00
2018-06-17T05:58:24.849Z,100788.00
2018-06-17T06:00:54.791Z,100783.00
2018-06-17T06:03:24.451Z,100787.00
2018-06-17T06:05:54.743Z,100794.00
2018-06-17T06:08:25.064Z,100791.00
2018-06-17T06:10:55.715Z,100787.00
2018-06-17T06:13:25.859Z,100792.00
2018-06-17T06:15:55.983Z,100797.00
2018-06-17T06:18:26.917Z,100805.00
2018-06-17T06:20:56.937Z,100796.00
2018-06-17T06:23:27.092Z,100792.00
2018-06-17T06:25:57.288Z,100797.00
2018-06-17T06:28:26.991Z,100797.00
2018-06-17T06:30:57.049Z,100800.00
2018-06-17T06:33:26.978Z,100794.00
2018-06-17T06:35:57.483Z,100795.00
2018-06-17T06:38:27.272Z,100795.00
2018-06-17T06:40:57.159Z,100803.00
2018-06-17T06:43:26.833Z,100796.00
2018-06-17T06:45:57.085Z,100789.00
2018-06-17T06:48:27.272Z,100787.00
2018-06-17T06:50:57.153Z,100797.00
2018-06-17T06:53:27.147Z,100784.00
2018-06-17T06:55:57.944Z,100794.00
2018-06-17T06:58:27.899Z,100792.00
2018-06-17T07:00:58.107Z,100796.00
2018-06-17T07:05:46.715Z,100799.00
2018-06-17T07:08:27.110Z,100810.00
2018-06-17T07:10:57.070Z,100804.00
2018-06-17T07:13:26.648Z,100817.00
2018-06-17T07:16:07.090Z,100811.00
2018-06-17T07:18:39.924Z,100818.00
2018-06-17T07:21:10.384Z,100822.00
2018-06-17T07:23:40.522Z,100816.00
2018-06-17T07:26:40.644Z,100821.00
2018-06-17T07:29:21.641Z,100825.00
2018-06-17T07:31:51.658Z,100833.00
2018-06-17T07:34:21.380Z,100822.00
2018-06-17T07:36:51.100Z,100828.00
2018-06-17T07:40:31.737Z,100834.00
2018-06-17T07:43:01.188Z,100831.00
2018-06-17T07:45:30.964Z,100819.00
2018-06-17T07:48:00.829Z,100823.00
2018-06-17T07:51:39.564Z,100832.00
2018-06-17T07:54:09.633Z,100823.00
2018-06-17T07:56:39.345Z,100827.00
2018-06-17T07:59:08.870Z,100832.00
2018-06-17T08:01:38.618Z,100830.00
2018-06-17T08:04:08.389Z,100839.00
2018-06-17T08:06:38.174Z,100818.00
2018-06-17T08:09:08.450Z,100823.00
2018-06-17T08:11:38.105Z,100819.00
2018-06-17T08:14:08.094Z,100802.00
2018-06-17T08:16:42.290Z,100816.00
2018-06-17T08:19:12.098Z,100809.00
2018-06-17T08:21:41.729Z,100806.00
2018-06-17T08:24:11.598Z,100812.00
2018-06-17T08:26:41.050Z,100808.00
2018-06-17T08:29:11.278Z,100811.00
2018-06-17T08:31:40.890Z,100812.00
2018-06-17T08:34:11.174Z,100815.00
2018-06-17T08:36:41.491Z,100817.00
2018-06-17T08:39:13.586Z,100816.00
2018-06-17T08:41:43.736Z,100810.00
2018-06-17T08:44:13.964Z,100830.00
2018-06-17T08:46:44.388Z,100819.00
2018-06-17T08:49:15.227Z,100811.00
2018-06-17T08:51:45.132Z,100817.00
2018-06-17T08:54:15.746Z,100819.00
2018-06-17T08:56:45.716Z,100827.00
2018-06-17T08:59:15.560Z,100811.00
2018-06-17T09:01:45.632Z,100805.00
2018-06-17T09:04:15.724Z,100813.00
2018-06-17T09:06:46.074Z,100821.00
2018-06-17T09:09:16.582Z,100818.00
2018-06-17T09:11:46.591Z,100811.00
2018-06-17T09:14:16.611Z,100815.00
2018-06-17T09:16:46.173Z,100808.00
2018-06-17T09:19:17.207Z,100806.00
2018-06-17T09:21:47.219Z,100809.00
2018-06-17T09:24:17.449Z,100810.00
2018-06-17T09:26:47.697Z,100835.00
2018-06-17T09:29:18.125Z,100815.00
2018-06-17T09:31:47.873Z,100820.00
2018-06-17T09:34:17.922Z,100816.00
2018-06-17T09:36:47.994Z,100829.00
2018-06-17T09:39:17.547Z,100822.00
2018-06-17T09:41:48.327Z,100823.00
2018-06-17T09:44:18.241Z,100823.00
2018-06-17T09:46:48.123Z,100834.00
2018-06-17T09:49:18.170Z,100824.00
2018-06-17T09:51:48.304Z,100826.00
2018-06-17T09:54:18.258Z,100830.00
2018-06-17T09:56:49.507Z,100828.00
2018-06-17T09:59:19.392Z,100830.00
2018-06-17T10:01:48.850Z,100815.00
2018-06-17T10:04:18.988Z,100831.00
2018-06-17T10:06:48.668Z,100832.00
2018-06-17T10:09:18.330Z,100827.00
2018-06-17T10:11:48.179Z,100822.00
2018-06-17T10:14:18.247Z,100819.00
2018-06-17T10:16:48.013Z,100847.00
2018-06-17T10:19:17.780Z,100829.00
2018-06-17T10:21:47.342Z,100834.00
2018-06-17T10:24:17.257Z,100830.00
2018-06-17T10:26:47.205Z,100834.00
2018-06-17T10:29:16.632Z,100850.00
2018-06-17T10:31:46.077Z,100827.00
2018-06-17T10:34:16.023Z,100826.00
2018-06-17T10:36:45.812Z,100829.00
2018-06-17T10:39:15.966Z,100828.00
2018-06-17T10:41:45.759Z,100829.00
2018-06-17T10:44:15.463Z,100830.00
2018-06-17T10:46:45.192Z,100829.00
2018-06-17T10:49:15.481Z,100847.00
2018-06-17T10:51:45.759Z,100834.00
2018-06-17T10:54:16.176Z,100844.00
2018-06-17T10:56:47.290Z,100851.00
2018-06-17T10:59:17.334Z,100854.00
2018-06-17T11:01:47.324Z,100846.00
2018-06-17T11:04:17.313Z,100836.00
2018-06-17T11:06:47.769Z,100838.00
2018-06-17T11:09:17.307Z,100846.00
2018-06-17T11:11:47.216Z,100853.00
2018-06-17T11:14:17.786Z,100850.00
2018-06-17T11:16:47.632Z,100849.00
2018-06-17T11:19:17.586Z,100853.00
2018-06-17T11:21:47.782Z,100860.00
2018-06-17T11:24:18.194Z,100864.00
2018-06-17T11:26:48.192Z,100850.00
2018-06-17T11:29:18.322Z,100843.00
2018-06-17T11:31:48.111Z,100825.00
2018-06-17T11:34:17.828Z,100833.00
2018-06-17T11:36:47.557Z,100844.00
2018-06-17T11:39:17.520Z,100852.00
2018-06-17T11:41:47.595Z,100859.00
2018-06-17T11:44:17.420Z,100852.00
2018-06-17T11:46:47.191Z,100857.00
2018-06-17T11:49:17.148Z,100848.00
2018-06-17T11:51:47.175Z,100849.00
2018-06-17T11:54:18.530Z,100854.00
2018-06-17T11:56:48.915Z,100861.00
2018-06-17T11:59:18.802Z,100865.00
2018-06-17T12:01:48.639Z,100860.00
2018-06-17T12:04:18.704Z,100866.00
2018-06-17T12:06:48.581Z,100871.00
2018-06-17T12:09:18.726Z,100867.00
2018-06-17T12:11:48.719Z,100872.00
2018-06-17T12:14:18.541Z,100869.00
2018-06-17T12:16:48.270Z,100878.00
2018-06-17T12:19:18.351Z,100867.00
2018-06-17T12:21:48.035Z,100869.00
2018-06-17T12:24:18.070Z,100867.00
2018-06-17T12:26:48.087Z,100881.00
2018-06-17T12:29:17.840Z,100861.00
2018-06-17T12:31:48.229Z,100867.00
2018-06-17T12:34:17.871Z,100884.00
2018-06-17T12:36:47.441Z,100873.00
2018-06-17T12:39:17.254Z,100870.00
2018-06-17T12:41:47.059Z,100872.00
2018-06-17T12:44:16.703Z,100869.00
2018-06-17T12:46:46.553Z,100873.00
2018-06-17T12:49:16.275Z,100884.00
2018-06-17T12:51:46.300Z,100878.00
2018-06-17T12:54:16.159Z,100890.00
2018-06-17T12:56:46.159Z,100877.00
2018-06-17T12:59:17.266Z,100879.00
2018-06-17T13:01:47.121Z,100875.00
2018-06-17T13:04:16.781Z,100881.00
2018-06-17T13:06:46.350Z,100884.00
2018-06-17T13:09:17.039Z,100892.00
2018-06-17T13:11:50.695Z,100877.00
2018-06-17T13:14:20.983Z,100902.00
2018-06-17T13:16:52.437Z,100892.00
2018-06-17T13:19:22.399Z,100890.00
2018-06-17T13:21:52.022Z,100901.00
2018-06-17T13:24:23.816Z,100900.00
2018-06-17T13:26:56.523Z,100906.00
2018-06-17T13:29:27.362Z,100893.00
2018-06-17T13:31:57.579Z,100904.00
2018-06-17T13:34:27.151Z,100900.00
2018-06-17T13:36:56.986Z,100899.00
2018-06-17T13:39:26.575Z,100896.00
2018-06-17T13:41:56.153Z,100894.00
2018-06-17T13:44:26.378Z,100894.00
2018-06-17T13:46:56.441Z,100891.00
2018-06-17T13:49:26.415Z,100898.00
2018-06-17T13:51:56.410Z,100899.00
2018-06-17T13:54:26.221Z,100903.00
2018-06-17T13:56:57.081Z,100905.00
2018-06-17T13:59:26.997Z,100894.00
2018-06-17T14:01:56.656Z,100911.00
2018-06-17T14:04:26.272Z,100903.00
2018-06-17T14:06:56.605Z,100909.00
2018-06-17T14:09:26.481Z,100911.00
2018-06-17T14:11:56.446Z,100922.00
2018-06-17T14:14:26.406Z,100915.00
2018-06-17T14:16:56.209Z,100915.00
2018-06-17T14:19:26.157Z,100920.00
2018-06-17T14:21:55.858Z,100928.00
2018-06-17T14:24:25.469Z,100938.00
2018-06-17T14:26:55.071Z,100938.00
2018-06-17T14:29:25.050Z,100937.00
2018-06-17T14:31:54.871Z,100935.00
2018-06-17T14:34:24.794Z,100954.00
2018-06-17T14:36:54.802Z,100943.00
2018-06-17T14:39:24.686Z,100951.00
2018-06-17T14:41:59.748Z,100952.00
2018-06-17T14:44:34.378Z,100960.00
2018-06-17T14:47:08.906Z,100970.00
2018-06-17T14:49:43.526Z,100967.00
2018-06-17T14:52:18.383Z,100970.00
2018-06-17T14:54:47.853Z,100974.00
2018-06-17T14:57:17.371Z,100968.00
2018-06-17T14:59:47.175Z,100962.00
2018-06-17T15:02:16.443Z,100979.00
2018-06-17T15:04:46.231Z,100965.00
2018-06-17T15:07:16.326Z,100962.00
2018-06-17T15:09:45.914Z,100973.00
2018-06-17T15:12:15.880Z,100967.00
2018-06-17T15:14:45.574Z,100975.00
2018-06-17T15:17:15.611Z,100979.00
2018-06-17T15:19:45.749Z,100965.00
2018-06-17T15:22:15.612Z,100973.00
2018-06-17T15:24:45.975Z,100977.00
2018-06-17T15:27:16.677Z,100980.00
2018-06-17T15:29:46.883Z,100978.00
2018-06-17T15:32:21.429Z,100978.00
2018-06-17T15:34:55.966Z,100967.00
2018-06-17T15:37:30.927Z,100962.00
2018-06-17T15:40:01.352Z,100958.00
2018-06-17T15:42:31.061Z,100971.00
2018-06-17T15:45:00.885Z,100970.00
2018-06-17T15:47:30.749Z,100967.00
2018-06-17T15:50:00.766Z,100976.00
2018-06-17T15:52:30.770Z,100967.00
2018-06-17T15:55:01.123Z,100968.00
2018-06-17T15:57:30.965Z,100963.00
2018-06-17T16:00:00.762Z,100968.00
2018-06-17T16:02:31.447Z,100968.00
2018-06-17T16:05:01.604Z,100968.00
2018-06-17T16:07:31.846Z,100981.00
2018-06-17T16:10:02.446Z,100967.00
2018-06-17T16:12:37.798Z,100970.00
2018-06-17T16:15:13.326Z,100971.00
2018-06-17T16:17:48.710Z,100976.00
2018-06-17T16:21:26.743Z,100972.00
2018-06-17T16:23:56.355Z,100988.00
2018-06-17T16:26:26.614Z,100967.00
2018-06-17T16:28:56.778Z,100971.00
2018-06-17T16:31:26.684Z,100962.00
2018-06-17T16:33:56.502Z,100971.00
2018-06-17T16:36:28.030Z,100974.00
2018-06-17T16:38:58.580Z,100976.00
2018-06-17T16:41:29.128Z,100971.00
2018-06-17T16:43:59.062Z,100969.00
2018-06-17T16:46:29.100Z,100982.00
2018-06-17T16:48:58.809Z,100968.00
2018-06-17T16:51:34.030Z,100975.00
2018-06-17T16:54:08.756Z,100966.00
2018-06-17T16:56:43.614Z,100967.00
2018-06-17T16:59:18.992Z,100964.00
2018-06-17T17:01:49.260Z,100958.00
2018-06-17T17:04:19.334Z,100970.00
2018-06-17T17:06:49.090Z,100957.00
2018-06-17T17:09:19.756Z,100961.00
2018-06-17T17:11:49.804Z,100970.00
2018-06-17T17:14:19.908Z,100971.00
2018-06-17T17:16:49.758Z,100963.00
2018-06-17T17:19:20.870Z,100976.00
2018-06-17T17:21:51.110Z,100980.00
2018-06-17T17:24:21.216Z,100980.00
2018-06-17T17:26:52.054Z,100981.00
2018-06-17T17:29:22.544Z,100975.00
2018-06-17T17:31:58.796Z,100985.00
2018-06-17T17:34:35.092Z,100985.00
2018-06-17T17:37:10.690Z,100990.00
2018-06-17T17:39:46.295Z,101000.00
2018-06-17T17:42:17.609Z,101011.00
2018-06-17T17:44:52.970Z,101004.00
2018-06-17T17:47:24.504Z,101004.00
2018-06-17T17:49:55.336Z,100999.00
2018-06-17T17:52:25.656Z,100998.00
2018-06-17T17:54:56.344Z,101006.00
2018-06-17T17:57:27.754Z,100997.00
2018-06-17T17:59:58.086Z,101001.00
2018-06-17T18:02:27.985Z,101002.00
2018-06-17T18:04:58.094Z,101004.00
2018-06-17T18:07:28.663Z,100996.00
2018-06-17T18:09:58.655Z,100999.00
2018-06-17T18:12:29.416Z,101013.00
2018-06-17T18:14:59.943Z,101002.00
2018-06-17T18:17:30.389Z,101015.00
2018-06-17T18:20:01.415Z,101009.00
2018-06-17T18:22:31.850Z,101020.00
2018-06-17T18:25:07.426Z,101028.00
2018-06-17T18:27:43.034Z,101026.00
2018-06-17T18:30:18.646Z,101024.00
2018-06-17T18:32:53.812Z,101026.00
2018-06-17T18:35:30.961Z,101025.00
2018-06-17T18:38:02.808Z,101023.00
2018-06-17T18:40:33.154Z,101021.00
2018-06-17T18:43:03.790Z,101024.00
2018-06-17T18:45:33.636Z,101019.00
2018-06-17T18:48:03.727Z,101018.00
2018-06-17T18:50:34.932Z,101024.00
2018-06-17T18:53:05.199Z,101019.00
2018-06-17T18:55:36.400Z,101019.00
2018-06-17T18:58:07.079Z,101026.00
2018-06-17T19:00:38.942Z,101027.00
2018-06-17T19:03:09.272Z,101022.00
2018-06-17T19:05:40.148Z,101036.00
2018-06-17T19:08:15.908Z,101038.00
2018-06-17T19:10:51.191Z,101043.00
2018-06-17T19:13:26.049Z,101040.00
2018-06-17T19:16:02.767Z,101041.00
2018-06-17T19:18:32.897Z,101040.00
2018-06-17T19:21:03.078Z,101044.00
2018-06-17T19:23:33.037Z,101049.00
2018-06-17T19:26:02.675Z,101044.00
2018-06-17T19:28:32.535Z,101048.00
2018-06-17T19:31:02.500Z,101061.00
2018-06-17T19:33:32.304Z,101056.00
2018-06-17T19:36:01.680Z,101060.00
2018-06-17T19:38:31.296Z,101060.00
2018-06-17T19:41:01.512Z,101054.00
2018-06-17T19:43:30.737Z,101055.00
2018-06-17T19:46:00.257Z,101058.00
2018-06-17T19:48:29.750Z,101074.00
2018-06-17T19:51:04.072Z,101069.00
2018-06-17T19:53:38.438Z,101067.00
2018-06-17T19:56:12.929Z,101056.00
2018-06-17T19:58:47.400Z,101058.00
2018-06-17T20:01:16.442Z,101055.00
2018-06-17T20:03:45.600Z,101062.00
2018-06-17T20:06:15.181Z,101058.00
2018-06-17T20:08:44.284Z,101059.00
2018-06-17T20:11:13.577Z,101061.00
2018-06-17T20:13:42.952Z,101066.00
2018-06-17T20:16:11.983Z,101061.00
2018-06-17T20:18:41.082Z,101056.00
2018-06-17T20:21:10.507Z,101074.00
2018-06-17T20:23:39.912Z,101064.00
2018-06-17T20:26:09.381Z,101072.00
2018-06-17T20:28:39.061Z,101072.00
2018-06-17T20:31:08.704Z,101068.00
2018-06-17T20:33:43.256Z,101078.00
2018-06-17T20:36:17.791Z,101080.00
2018-06-17T20:38:52.444Z,101076.00
2018-06-17T20:41:26.972Z,101085.00
2018-06-17T20:43:56.438Z,101070.00
2018-06-17T20:46:26.101Z,101071.00
2018-06-17T20:48:56.446Z,101068.00
2018-06-17T20:51:25.780Z,101082.00
2018-06-17T20:53:55.773Z,101076.00
2018-06-17T20:56:25.612Z,101078.00
2018-06-17T20:58:55.010Z,101072.00
2018-06-17T21:01:24.471Z,101076.00
2018-06-17T21:03:54.097Z,101080.00
2018-06-17T21:06:23.375Z,101083.00
2018-06-17T21:08:52.974Z,101101.00
2018-06-17T21:11:22.502Z,101106.00
2018-06-17T21:13:52.118Z,101100.00
2018-06-17T21:16:21.521Z,101119.00
2018-06-17T21:18:56.110Z,101112.00
2018-06-17T21:21:31.271Z,101115.00
2018-06-17T21:24:06.171Z,101120.00
2018-06-17T21:26:40.690Z,101112.00
2018-06-17T21:29:10.292Z,101119.00
2018-06-17T21:31:40.278Z,101117.00
2018-06-17T21:34:10.463Z,101132.00
2018-06-17T21:36:40.101Z,101129.00
2018-06-17T21:39:10.853Z,101106.00
2018-06-17T21:41:40.616Z,101118.00
2018-06-17T21:44:10.931Z,101130.00
2018-06-17T21:46:40.185Z,101122.00
2018-06-17T21:49:10.021Z,101125.00
2018-06-17T21:51:39.656Z,101124.00
2018-06-17T21:54:09.216Z,101129.00
2018-06-17T21:56:38.730Z,101124.00
2018-06-17T21:59:08.327Z,101125.00
2018-06-17T22:01:37.854Z,101135.00
2018-06-17T22:04:12.894Z,101133.00
2018-06-17T22:06:43.280Z,101129.00
2018-06-17T22:09:19.743Z,101140.00
2018-06-17T22:14:01.771Z,101152.00
2018-06-17T22:16:36.342Z,101147.00
2018-06-17T22:19:05.943Z,101142.00
2018-06-17T22:21:35.664Z,101142.00
2018-06-17T22:24:05.451Z,101150.00
2018-06-17T22:26:35.338Z,101144.00
2018-06-17T22:29:05.054Z,101154.00
2018-06-17T22:31:34.896Z,101142.00
2018-06-17T22:34:04.513Z,101146.00
2018-06-17T22:36:33.797Z,101149.00
2018-06-17T22:39:03.282Z,101148.00
2018-06-17T22:41:32.766Z,101145.00
2018-06-17T22:44:02.313Z,101144.00
2018-06-17T22:46:32.006Z,101149.00
2018-06-17T22:49:01.363Z,101148.00
2018-06-17T22:51:30.685Z,101142.00
2018-06-17T22:54:11.306Z,101145.00
2018-06-17T22:56:45.996Z,101153.00
2018-06-17T22:59:21.103Z,101157.00
2018-06-17T23:01:56.177Z,101157.00
2018-06-17T23:04:30.986Z,101146.00
2018-06-17T23:07:06.047Z,101158.00
2018-06-17T23:09:38.621Z,101155.00
2018-06-17T23:12:08.318Z,101162.00
2018-06-17T23:14:38.243Z,101158.00
2018-06-17T23:17:08.045Z,101158.00
2018-06-17T23:19:37.993Z,101164.00
2018-06-17T23:22:07.842Z,101170.00
2018-06-17T23:24:37.930Z,101168.00
2018-06-17T23:27:08.137Z,101170.00
2018-06-17T23:29:38.316Z,101170.00
2018-06-17T23:32:07.905Z,101176.00
2018-06-17T23:34:37.409Z,101181.00
2018-06-17T23:37:07.494Z,101179.00
2018-06-17T23:39:37.699Z,101175.00
2018-06-17T23:42:07.874Z,101181.00
2018-06-17T23:44:37.382Z,101177.00
2018-06-17T23:47:12.511Z,101181.00
2018-06-17T23:49:47.254Z,101187.00
2018-06-17T23:52:22.541Z,101178.00
2018-06-17T23:54:57.349Z,101187.00
2018-06-17T23:57:26.982Z,101198.00
2018-06-17T23:59:56.768Z,101190.00
